Time;durP1;ratioP1;P1;durP2;ratioP2;P2;SDS_P1;SDS_P2;PMS_P1;PMS_P2;Temp;Humidity;BMP_temperature;BMP_pressure;BME280_temperature;BME280_humidity;BME280_pressure;Samples;Min_cycle;Max_cycle;Signal;HPM_P1;HPM_P2
2023/06/09 00:00:12;;;;;;;10.05;6.13;;;;;;;16.54;91.55;100955.41;2099582;28;20512;-72
2023/06/09 00:01:20;;;;;;;10.63;5.88;;;;;;;16.56;91.45;100958.63;2093253;28;20033;-72
2023/06/09 00:02:23;;;;;;;9.60;5.88;;;;;;;16.56;91.64;100955.13;2100317;28;20029;-72
2023/06/09 00:03:27;;;;;;;9.23;5.88;;;;;;;16.64;91.41;100962.50;2108817;28;20044;-72
2023/06/09 00:04:30;;;;;;;13.98;6.03;;;;;;;16.71;91.52;100960.19;2099810;28;20033;-72
2023/06/09 00:05:32;;;;;;;10.98;6.13;;;;;;;16.79;91.31;100962.16;2091463;28;20777;-72
2023/06/09 00:06:37;;;;;;;8.45;5.00;;;;;;;16.82;90.95;100956.09;2091960;28;20033;-71
2023/06/09 00:07:39;;;;;;;7.93;4.97;;;;;;;16.84;90.56;100953.09;2091672;28;20933;-72
2023/06/09 00:08:41;;;;;;;9.13;5.57;;;;;;;16.88;90.36;100944.00;2100125;28;20033;-71
2023/06/09 00:09:44;;;;;;;7.32;5.18;;;;;;;16.92;90.09;100944.19;2108113;28;20029;-72
2023/06/09 00:10:46;;;;;;;11.40;5.32;;;;;;;16.91;89.70;100943.38;2099695;28;20182;-72
2023/06/09 00:11:48;;;;;;;8.65;5.57;;;;;;;16.94;89.38;100943.88;2099834;28;21391;-72
2023/06/09 00:12:54;;;;;;;7.70;5.15;;;;;;;16.91;89.06;100937.94;2091144;28;20029;-71
2023/06/09 00:13:56;;;;;;;8.65;5.10;;;;;;;16.91;88.79;100945.28;2100609;28;20037;-71
2023/06/09 00:14:58;;;;;;;8.75;4.75;;;;;;;16.91;88.37;100940.66;2090839;28;20501;-71
2023/06/09 00:16:03;;;;;;;8.98;5.07;;;;;;;16.93;88.26;100948.50;2099837;28;20064;-72
2023/06/09 00:17:09;;;;;;;6.38;4.97;;;;;;;16.87;87.76;100945.13;2091654;28;20100;-72
2023/06/09 00:18:15;;;;;;;12.68;5.13;;;;;;;16.90;87.66;100952.66;2084419;28;20857;-72
2023/06/09 00:19:21;;;;;;;6.78;4.28;;;;;;;16.96;87.59;100950.59;2092815;28;20039;-72
2023/06/09 00:20:25;;;;;;;10.95;4.47;;;;;;;16.97;87.30;100948.69;2100510;28;20029;-72
2023/06/09 00:21:26;;;;;;;9.77;5.25;;;;;;;16.90;86.78;100946.41;2099689;28;20029;-72
2023/06/09 00:22:31;;;;;;;9.20;5.18;;;;;;;16.90;86.64;100941.78;2099497;28;20139;-72
2023/06/09 00:23:35;;;;;;;7.65;4.85;;;;;;;16.90;86.59;100949.94;2099428;28;20029;-72
2023/06/09 00:24:37;;;;;;;8.50;5.07;;;;;;;16.95;86.55;100954.41;2092271;28;20906;-72
2023/06/09 00:25:39;;;;;;;7.88;4.50;;;;;;;17.00;86.47;100950.78;2091149;28;20025;-72
2023/06/09 00:26:41;;;;;;;8.32;4.80;;;;;;;16.96;86.35;100958.75;2083495;28;20033;-72
2023/06/09 00:27:44;;;;;;;8.00;5.07;;;;;;;16.90;85.73;100941.78;2090899;28;20036;-72
2023/06/09 00:28:49;;;;;;;11.00;4.82;;;;;;;16.86;85.72;100946.22;2084818;28;20030;-72
2023/06/09 00:29:51;;;;;;;6.60;4.50;;;;;;;16.89;85.81;100956.47;2082893;28;20041;-72
2023/06/09 00:30:52;;;;;;;7.18;4.80;;;;;;;16.95;85.46;100959.06;2083558;28;20737;-72
2023/06/09 00:31:56;;;;;;;7.22;4.70;;;;;;;17.00;85.51;100956.22;2091184;28;20037;-72
2023/06/09 00:32:59;;;;;;;6.13;4.38;;;;;;;17.07;85.40;100948.41;2084007;28;20152;-72
2023/06/09 00:34:01;;;;;;;9.05;4.60;;;;;;;17.09;85.20;100955.16;2074625;28;20077;-72
2023/06/09 00:35:07;;;;;;;9.38;5.50;;;;;;;17.13;84.83;100947.16;2084206;28;20849;-72
2023/06/09 00:36:10;;;;;;;7.22;4.47;;;;;;;17.13;84.63;100947.16;2107021;28;20028;-72
2023/06/09 00:37:12;;;;;;;6.60;4.45;;;;;;;17.11;84.36;100947.47;2091105;28;20041;-72
2023/06/09 00:38:19;;;;;;;8.73;4.03;;;;;;;17.11;84.27;100949.38;2083791;28;20888;-72
2023/06/09 00:39:20;;;;;;;9.88;4.43;;;;;;;17.08;84.01;100947.28;2083333;28;20185;-72
2023/06/09 00:40:22;;;;;;;8.70;4.63;;;;;;;17.04;83.87;100951.75;2090936;28;20209;-72
2023/06/09 00:41:23;;;;;;;8.50;4.20;;;;;;;17.01;84.00;100944.22;2091039;28;20953;-72
2023/06/09 00:42:30;;;;;;;7.07;4.47;;;;;;;16.92;84.18;100936.81;2091030;28;20045;-72
2023/06/09 00:43:32;;;;;;;9.25;4.75;;;;;;;16.82;84.13;100937.09;2099620;28;20017;-72
2023/06/09 00:44:34;;;;;;;10.75;4.43;;;;;;;16.73;84.42;100938.13;2091320;28;20689;-72
2023/06/09 00:45:36;;;;;;;6.07;4.20;;;;;;;16.68;84.73;100939.06;2083157;28;20037;-72
2023/06/09 00:46:40;;;;;;;11.27;5.13;;;;;;;16.63;85.10;100929.13;2074783;28;20112;-71
2023/06/09 00:47:44;;;;;;;8.30;4.10;;;;;;;16.61;84.95;100941.41;2084425;28;20140;-71
2023/06/09 00:48:46;;;;;;;6.70;4.45;;;;;;;16.60;85.29;100940.59;2091772;28;20042;-71
2023/06/09 00:49:48;;;;;;;7.40;4.70;;;;;;;16.58;85.00;100944.72;2091289;28;20022;-71
2023/06/09 00:50:50;;;;;;;8.18;4.55;;;;;;;16.61;85.18;100931.38;2082621;28;20030;-72
2023/06/09 00:51:52;;;;;;;6.28;4.03;;;;;;;16.68;85.23;100936.34;2074962;28;20034;-71
2023/06/09 00:52:58;;;;;;;8.45;4.28;;;;;;;16.71;84.77;100941.16;2074399;28;20864;-72
2023/06/09 00:54:00;;;;;;;6.25;4.03;;;;;;;16.73;84.54;100933.50;2083312;28;20030;-71
2023/06/09 00:55:02;;;;;;;9.13;4.50;;;;;;;16.66;84.07;100931.22;2083253;28;20117;-72
2023/06/09 00:56:05;;;;;;;7.85;4.70;;;;;;;16.60;84.02;100931.66;2108116;28;20045;-71
2023/06/09 00:57:07;;;;;;;7.38;4.50;;;;;;;16.65;84.19;100940.50;2107348;28;20156;-71
2023/06/09 00:58:10;;;;;;;13.10;4.97;;;;;;;16.62;83.78;100930.25;2099372;28;20131;-71
2023/06/09 00:59:14;;;;;;;10.60;4.45;;;;;;;16.56;83.74;100920.63;2094237;28;20164;-71
2023/06/09 01:00:18;;;;;;;8.32;4.00;;;;;;;16.55;83.69;100926.34;2091796;28;20956;-72
2023/06/09 01:01:20;;;;;;;5.03;3.70;;;;;;;16.54;83.82;100930.19;2099918;28;20032;-72
2023/06/09 01:02:24;;;;;;;6.38;3.95;;;;;;;16.59;83.71;100924.63;2090722;28;20851;-71
2023/06/09 01:03:27;;;;;;;6.22;4.00;;;;;;;16.64;83.56;100932.63;2099558;28;20126;-71
2023/06/09 01:04:32;;;;;;;5.65;4.00;;;;;;;16.68;83.14;100930.94;2107607;28;20106;-71
2023/06/09 01:05:37;;;;;;;8.43;4.20;;;;;;;16.71;83.02;100927.59;2107870;28;20032;-71
2023/06/09 01:07:10;;;;;;;8.32;4.40;;;;;;;16.72;82.76;100933.81;2108063;28;20025;-73
2023/06/09 01:08:50;;;;;;;8.25;4.22;;;;;;;16.70;82.30;100923.25;2107285;28;20126;-73
2023/06/09 01:10:33;;;;;;;7.47;3.80;;;;;;;16.65;82.34;100924.19;2105060;28;20032;-73
2023/06/09 01:12:10;;;;;;;8.85;5.55;;;;;;;16.63;82.04;100931.03;2088407;28;20045;-73
2023/06/09 01:13:16;;;;;;;6.93;3.92;;;;;;;16.68;82.01;100931.72;2073288;28;20061;-73
2023/06/09 01:14:26;;;;;;;8.93;4.10;;;;;;;16.70;82.06;100931.41;2066390;28;20043;-73
2023/06/09 01:15:32;;;;;;;7.93;4.35;;;;;;;16.71;81.83;100927.59;2099959;28;20068;-73
2023/06/09 01:17:08;;;;;;;8.13;4.00;;;;;;;16.67;81.74;100923.88;2108299;28;20040;-73
2023/06/09 01:18:14;;;;;;;8.57;4.35;;;;;;;16.62;81.50;100930.25;2106665;28;20032;-73
2023/06/09 01:19:27;;;;;;;6.28;3.88;;;;;;;16.64;81.27;100932.63;2107395;28;20071;-73
2023/06/09 01:20:35;;;;;;;7.32;4.00;;;;;;;16.64;81.34;100919.06;2109437;28;20151;-73
2023/06/09 01:21:44;;;;;;;8.32;4.10;;;;;;;16.66;81.31;100925.78;2124503;27;20032;-73
2023/06/09 01:22:59;;;;;;;5.88;3.38;;;;;;;16.63;81.27;100922.91;2114460;28;20024;-73
2023/06/09 01:24:30;;;;;;;6.15;4.05;;;;;;;16.65;81.11;100929.63;2092017;28;20038;-73
2023/06/09 01:25:43;;;;;;;6.95;4.18;;;;;;;16.67;81.01;100918.44;2098709;28;20028;-74
2023/06/09 01:26:50;;;;;;;7.72;4.70;;;;;;;16.74;81.17;100920.72;2101104;28;20751;-73
2023/06/09 01:27:57;;;;;;;6.28;3.65;;;;;;;16.79;80.92;100924.13;2106295;28;20945;-73
2023/06/09 01:29:02;;;;;;;7.03;3.88;;;;;;;16.84;80.44;100925.94;2104170;28;20025;-70
2023/06/09 01:30:10;;;;;;;6.65;3.50;;;;;;;16.80;79.98;100920.34;2108403;28;21036;-71
2023/06/09 01:31:15;;;;;;;9.18;4.03;;;;;;;16.73;80.00;100917.22;2107226;28;20024;-71
2023/06/09 01:32:18;;;;;;;6.20;3.70;;;;;;;16.72;80.13;100926.47;2091043;28;20033;-71
2023/06/09 01:33:24;;;;;;;7.10;3.92;;;;;;;16.63;79.99;100928.34;2099375;28;20855;-71
2023/06/09 01:34:29;;;;;;;8.85;3.95;;;;;;;16.60;80.13;100920.81;2112058;28;20020;-71
2023/06/09 01:35:31;;;;;;;6.45;3.80;;;;;;;16.56;80.37;100926.06;2099553;28;20043;-74
2023/06/09 01:36:34;;;;;;;9.32;3.72;;;;;;;16.60;80.42;100920.81;2099280;28;20036;-73
2023/06/09 01:37:37;;;;;;;8.45;4.10;;;;;;;16.62;80.31;100919.38;2108148;28;20028;-73
2023/06/09 01:38:39;;;;;;;9.75;4.13;;;;;;;16.65;80.36;100931.53;2099026;28;20863;-73
2023/06/09 01:39:40;;;;;;;4.15;3.33;;;;;;;16.68;80.32;100928.22;2099235;28;20803;-73
2023/06/09 01:40:43;;;;;;;7.28;3.70;;;;;;;16.68;80.32;100929.00;2099156;28;20142;-73
2023/06/09 01:41:50;;;;;;;5.25;3.30;;;;;;;16.68;80.11;100926.28;2109810;27;20927;-73
2023/06/09 01:42:53;;;;;;;8.07;3.67;;;;;;;16.67;80.12;100923.88;2106679;28;20086;-73
2023/06/09 01:43:55;;;;;;;8.27;4.00;;;;;;;16.68;80.14;100928.22;2090981;28;20022;-73
2023/06/09 01:44:57;;;;;;;7.93;3.42;;;;;;;16.72;80.30;100929.19;2099023;28;20036;-73
2023/06/09 01:45:58;;;;;;;5.65;3.67;;;;;;;16.74;80.20;100920.72;2107650;28;20862;-73
2023/06/09 01:47:00;;;;;;;5.55;3.63;;;;;;;16.74;79.88;100916.13;2098584;28;20029;-73
2023/06/09 01:48:20;;;;;;;8.57;3.58;;;;;;;16.76;79.95;100919.34;2107869;28;20041;-73
2023/06/09 01:49:24;;;;;;;;;;;;;;;16.80;79.79;100919.50;2107785;28;20028;-73
2023/06/09 01:50:59;;;;;;;5.97;3.63;;;;;;;16.80;79.83;100927.66;2107774;27;19920;-73
2023/06/09 01:52:17;;;;;;;5.85;3.28;;;;;;;16.81;79.63;100921.91;2109054;28;20051;-73
2023/06/09 01:53:39;;;;;;;5.10;3.22;;;;;;;16.84;79.45;100929.44;2117821;27;20838;-73
2023/06/09 01:54:48;;;;;;;8.07;3.58;;;;;;;16.88;79.46;100929.63;2116949;27;20831;-73
2023/06/09 01:55:58;;;;;;;6.38;3.17;;;;;;;16.92;79.21;100934.09;2108852;28;20024;-73
2023/06/09 01:57:06;;;;;;;18.17;4.40;;;;;;;16.96;79.01;100933.47;2099961;28;20024;-73
2023/06/09 01:58:16;;;;;;;5.07;3.20;;;;;;;16.99;79.13;100928.25;2118384;27;20040;-73
2023/06/09 01:59:23;;;;;;;5.35;3.33;;;;;;;17.02;78.85;100929.53;2113749;28;20044;-73
2023/06/09 02:00:26;;;;;;;7.85;3.50;;;;;;;17.03;78.65;100933.84;2108419;28;20040;-73
2023/06/09 02:01:32;;;;;;;6.30;3.63;;;;;;;17.02;78.68;100932.22;2116213;28;21162;-73
2023/06/09 02:02:38;;;;;;;7.53;3.35;;;;;;;16.99;78.47;100927.44;2124234;27;20039;-73
2023/06/09 02:03:42;;;;;;;6.82;3.40;;;;;;;16.87;78.50;100931.53;2106908;28;20835;-73
2023/06/09 02:04:45;;;;;;;8.82;3.63;;;;;;;16.78;78.82;100932.59;2090554;28;20068;-73
2023/06/09 02:05:51;;;;;;;6.03;3.40;;;;;;;16.73;79.08;100935.41;2107684;27;20075;-73
2023/06/09 02:06:57;;;;;;;6.90;4.00;;;;;;;16.70;79.21;100931.41;2107395;28;20024;-73
2023/06/09 02:08:02;;;;;;;8.07;3.53;;;;;;;16.70;79.75;100931.41;2099230;28;20045;-73
2023/06/09 02:09:04;;;;;;;6.70;3.60;;;;;;;16.71;79.77;100930.31;2108695;27;20850;-73
2023/06/09 02:10:09;;;;;;;6.57;3.70;;;;;;;16.67;79.82;100937.44;2106849;28;20155;-73
2023/06/09 02:11:11;;;;;;;6.78;3.83;;;;;;;16.64;79.87;100935.34;2099487;28;20045;-73
2023/06/09 02:12:12;;;;;;;11.07;4.20;;;;;;;16.65;79.95;100931.53;2115297;27;20029;-73
2023/06/09 02:13:14;;;;;;;5.97;3.85;;;;;;;16.69;79.90;100937.94;2115603;28;20064;-73
2023/06/09 02:14:17;;;;;;;5.47;3.38;;;;;;;16.71;80.02;100933.03;2090649;28;20852;-73
2023/06/09 02:15:19;;;;;;;6.30;3.47;;;;;;;16.67;79.83;100932.03;2116073;27;20144;-73
2023/06/09 02:16:24;;;;;;;6.72;3.33;;;;;;;16.63;80.28;100925.63;2123583;27;20169;-73
2023/06/09 02:17:26;;;;;;;8.32;3.40;;;;;;;16.64;79.93;100927.22;2107128;28;20119;-73
2023/06/09 02:18:28;;;;;;;7.95;3.50;;;;;;;16.62;80.32;100930.25;2115981;27;20124;-73
2023/06/09 02:19:30;;;;;;;8.63;3.80;;;;;;;16.63;80.34;100931.84;2132525;27;20851;-74
2023/06/09 02:20:32;;;;;;;6.97;3.25;;;;;;;16.65;80.43;100923.41;2115016;28;20040;-73
2023/06/09 02:21:37;;;;;;;7.30;3.13;;;;;;;16.67;80.43;100930.09;2099655;28;20159;-73
2023/06/09 02:22:38;;;;;;;5.60;3.58;;;;;;;16.71;80.12;100927.59;2099029;28;20818;-73
2023/06/09 02:23:41;;;;;;;8.05;3.20;;;;;;;16.75;80.31;100934.03;2090803;28;20119;-73
2023/06/09 02:24:43;;;;;;;7.53;3.50;;;;;;;16.80;80.08;100933.91;2098970;28;20029;-73
2023/06/09 02:25:47;;;;;;;7.70;4.10;;;;;;;16.85;80.00;100932.97;2107386;28;20878;-73
2023/06/09 02:26:51;;;;;;;7.35;3.55;;;;;;;16.86;80.00;100927.19;2098981;28;20033;-73
2023/06/09 02:27:53;;;;;;;7.13;3.65;;;;;;;16.85;80.10;100925.63;2102082;28;20040;-73
2023/06/09 02:28:56;;;;;;;5.63;3.72;;;;;;;16.83;79.98;100932.47;2102732;28;20041;-73
2023/06/09 02:30:00;;;;;;;6.95;3.80;;;;;;;16.81;80.18;100930.06;2083118;28;20105;-74
2023/06/09 02:31:03;;;;;;;9.52;3.85;;;;;;;16.74;80.42;100932.41;2081955;28;20140;-73
2023/06/09 02:32:06;;;;;;;7.03;3.58;;;;;;;16.76;80.65;100934.81;2099287;28;20032;-73
2023/06/09 02:33:14;;;;;;;9.15;3.40;;;;;;;16.74;80.78;100926.97;2115787;28;20965;-73
2023/06/09 02:34:16;;;;;;;12.27;3.60;;;;;;;16.73;80.96;100925.34;2101761;28;20036;-73
2023/06/09 02:35:18;;;;;;;8.25;3.30;;;;;;;16.74;81.16;100932.41;2099399;28;20029;-74
2023/06/09 02:36:22;;;;;;;5.82;3.40;;;;;;;16.78;81.04;100921.75;2107006;28;20037;-73
2023/06/09 02:37:23;;;;;;;7.93;3.47;;;;;;;16.81;81.13;100921.13;2098692;28;20037;-73
2023/06/09 02:38:26;;;;;;;6.60;3.20;;;;;;;16.82;81.15;100931.66;2099130;28;20025;-73
2023/06/09 02:39:30;;;;;;;7.88;3.28;;;;;;;16.83;81.11;100930.53;2091481;28;20098;-73
2023/06/09 02:40:32;;;;;;;7.10;3.42;;;;;;;16.84;81.12;100921.31;2098525;28;20029;-73
2023/06/09 02:41:34;;;;;;;6.82;3.22;;;;;;;16.81;81.42;100930.06;2090397;28;20829;-73
2023/06/09 02:42:36;;;;;;;5.05;3.10;;;;;;;16.82;81.47;100933.59;2098488;28;20037;-73
2023/06/09 02:43:38;;;;;;;7.28;3.05;;;;;;;16.85;81.66;100933.75;2107156;28;20037;-73
2023/06/09 02:44:41;;;;;;;13.82;3.45;;;;;;;16.84;81.41;100937.59;2107220;28;20086;-73
2023/06/09 02:45:43;;;;;;;8.90;3.50;;;;;;;16.86;81.54;100940.00;2098730;28;20021;-73
2023/06/09 02:46:47;;;;;;;11.00;4.03;;;;;;;16.90;81.40;100930.13;2099648;28;20063;-73
2023/06/09 02:47:49;;;;;;;7.63;3.30;;;;;;;16.91;81.27;100937.16;2098794;28;20024;-73
2023/06/09 02:48:50;;;;;;;6.68;3.05;;;;;;;16.90;81.44;100935.56;2098941;28;20021;-73
2023/06/09 02:49:52;;;;;;;6.57;3.25;;;;;;;16.84;81.74;100937.59;2107207;28;20163;-73
2023/06/09 02:50:55;;;;;;;10.65;3.35;;;;;;;16.82;81.84;100939.81;2098558;28;20834;-73
2023/06/09 02:51:58;;;;;;;9.38;3.40;;;;;;;16.84;81.88;100944.94;2083723;28;20021;-73
2023/06/09 02:53:02;;;;;;;7.80;3.28;;;;;;;16.82;82.06;100945.25;2098878;28;20138;-73
2023/06/09 02:54:04;;;;;;;10.05;3.35;;;;;;;16.82;82.22;100941.72;2098597;28;21119;-74
2023/06/09 02:55:11;;;;;;;6.10;3.30;;;;;;;16.82;82.40;100934.38;2098682;28;20878;-73
2023/06/09 02:56:17;;;;;;;6.18;3.30;;;;;;;16.81;82.26;100940.94;2092046;28;20034;-73
2023/06/09 02:57:25;;;;;;;6.50;3.50;;;;;;;16.82;82.53;100944.44;2083357;28;20045;-74
2023/06/09 02:58:27;;;;;;;9.05;4.30;;;;;;;16.82;82.58;100945.25;2092045;28;20041;-73
2023/06/09 02:59:31;;;;;;;5.68;3.42;;;;;;;16.84;82.77;100948.47;2106928;28;20128;-73
2023/06/09 03:00:33;;;;;;;7.53;3.40;;;;;;;16.89;82.58;100951.03;2107103;28;20135;-73
2023/06/09 03:01:38;;;;;;;8.50;3.22;;;;;;;16.95;82.63;100954.41;2090749;28;20030;-74
2023/06/09 03:02:42;;;;;;;10.23;3.25;;;;;;;16.95;82.39;100953.63;2092003;28;20041;-73
2023/06/09 03:03:45;;;;;;;8.00;3.35;;;;;;;16.95;82.59;100956.34;2098357;28;20844;-73
2023/06/09 03:04:47;;;;;;;7.38;3.10;;;;;;;16.98;82.43;100950.28;2082356;28;20103;-73
2023/06/09 03:05:52;;;;;;;7.78;3.33;;;;;;;17.04;82.52;100957.97;2090572;28;20741;-73
2023/06/09 03:06:54;;;;;;;11.20;3.08;;;;;;;17.12;82.40;100953.72;2107156;28;20136;-73
2023/06/09 03:07:56;;;;;;;14.63;3.95;;;;;;;17.18;82.41;100952.47;2107094;28;20017;-73
2023/06/09 03:08:59;;;;;;;5.40;3.17;;;;;;;17.24;82.09;100955.81;2098823;28;20037;-73
2023/06/09 03:10:01;;;;;;;12.70;3.75;;;;;;;17.25;81.77;100952.81;2098471;28;20033;-73
2023/06/09 03:11:04;;;;;;;10.40;3.80;;;;;;;17.29;81.72;100955.69;2090906;28;20025;-73
2023/06/09 03:12:10;;;;;;;6.65;3.42;;;;;;;17.29;81.82;100953.78;2098912;28;20782;-73
2023/06/09 03:13:12;;;;;;;7.80;3.40;;;;;;;17.27;81.69;100957.91;2091018;28;20099;-73
2023/06/09 03:14:19;;;;;;;5.65;3.35;;;;;;;17.28;81.56;100952.19;2090882;28;20036;-73
2023/06/09 03:15:21;;;;;;;8.35;3.05;;;;;;;17.30;81.54;100955.38;2083288;28;20944;-73
2023/06/09 03:16:22;;;;;;;6.75;3.35;;;;;;;17.31;81.48;100954.28;2099505;28;20037;-73
2023/06/09 03:17:25;;;;;;;9.68;3.20;;;;;;;17.33;81.65;100954.75;2100422;28;20029;-73
2023/06/09 03:18:28;;;;;;;8.30;3.50;;;;;;;17.37;81.60;100953.03;2100241;28;20743;-73
2023/06/09 03:19:29;;;;;;;7.10;3.60;;;;;;;17.43;81.45;100953.66;2091536;28;21256;-74
2023/06/09 03:20:36;;;;;;;6.45;3.78;;;;;;;17.45;81.37;100953.34;2100210;28;20705;-73
2023/06/09 03:21:39;;;;;;;7.20;3.20;;;;;;;17.42;81.43;100951.28;2109234;28;20024;-73
2023/06/09 03:22:45;;;;;;;7.75;3.97;;;;;;;17.40;80.92;100953.50;2108220;28;20819;-73
2023/06/09 03:23:48;;;;;;;5.05;3.13;;;;;;;17.47;81.07;100956.56;2100957;28;20021;-73
2023/06/09 03:24:51;;;;;;;7.35;3.67;;;;;;;17.56;80.83;100952.75;2100249;28;20065;-73
2023/06/09 03:25:53;;;;;;;7.03;3.05;;;;;;;17.60;80.65;100951.00;2107879;28;20037;-73
2023/06/09 03:27:00;;;;;;;9.07;3.45;;;;;;;17.49;80.11;100949.69;2092883;28;20025;-73
2023/06/09 03:28:04;;;;;;;5.80;3.25;;;;;;;17.34;80.32;100955.56;2092495;28;20911;-73
2023/06/09 03:29:11;;;;;;;9.02;3.17;;;;;;;17.38;80.27;100957.34;2086847;28;20833;-73
2023/06/09 03:30:15;;;;;;;12.20;3.28;;;;;;;17.49;80.45;100954.31;2084799;28;20132;-74
2023/06/09 03:31:20;;;;;;;8.77;3.35;;;;;;;17.55;80.19;100948.41;2076610;28;20153;-73
2023/06/09 03:32:23;;;;;;;6.20;3.38;;;;;;;17.66;80.11;100959.81;2075066;28;20042;-74
2023/06/09 03:33:26;;;;;;;8.70;3.28;;;;;;;17.69;79.83;100956.47;2067609;28;20030;-73
2023/06/09 03:34:31;;;;;;;9.18;3.47;;;;;;;17.71;79.59;100948.78;2088454;28;20084;-73
2023/06/09 03:35:36;;;;;;;6.25;3.60;;;;;;;17.73;79.73;100957.44;2092515;28;20017;-73
2023/06/09 03:36:37;;;;;;;10.63;3.42;;;;;;;17.71;79.64;100958.84;2091747;28;20034;-73
2023/06/09 03:37:43;;;;;;;10.00;3.90;;;;;;;17.74;79.53;100964.47;2091370;28;20117;-73
2023/06/09 03:38:51;;;;;;;7.55;3.53;;;;;;;17.77;79.62;100957.63;2092689;28;20071;-73
2023/06/09 03:39:53;;;;;;;8.15;3.20;;;;;;;17.83;79.56;100957.16;2100937;28;20836;-74
2023/06/09 03:40:59;;;;;;;5.28;3.67;;;;;;;17.93;79.51;100955.25;2100995;28;20115;-73
2023/06/09 03:42:06;;;;;;;5.22;2.92;;;;;;;17.97;79.33;100961.66;2092129;28;20121;-74
2023/06/09 03:43:07;;;;;;;10.77;3.38;;;;;;;18.03;79.21;100960.38;2083801;28;20042;-73
2023/06/09 03:44:09;;;;;;;6.93;3.63;;;;;;;18.11;78.99;100961.53;2091567;28;20157;-73
2023/06/09 03:45:11;;;;;;;5.47;2.90;;;;;;;18.15;78.91;100957.03;2091783;28;20033;-74
2023/06/09 03:46:12;;;;;;;6.97;3.05;;;;;;;18.15;78.58;100957.81;2107928;28;20029;-73
2023/06/09 03:47:14;;;;;;;9.65;3.53;;;;;;;18.16;78.65;100964.06;2108453;28;20044;-73
2023/06/09 03:48:16;;;;;;;9.23;3.40;;;;;;;18.18;78.59;100959.91;2099490;28;20855;-74
2023/06/09 03:49:19;;;;;;;9.57;3.72;;;;;;;18.29;78.64;100969.38;2083296;28;20037;-74
2023/06/09 03:50:23;;;;;;;6.22;3.33;;;;;;;18.34;78.62;100967.59;2083811;28;20018;-73
2023/06/09 03:51:27;;;;;;;6.65;3.55;;;;;;;18.41;78.38;100962.47;2091910;28;20157;-74
2023/06/09 03:52:31;;;;;;;8.85;2.95;;;;;;;18.47;78.15;100969.34;2092269;28;20032;-71
2023/06/09 03:53:34;;;;;;;6.97;3.15;;;;;;;18.53;78.02;100968.06;2108438;28;20024;-71
2023/06/09 03:54:36;;;;;;;8.60;3.40;;;;;;;18.65;77.85;100968.22;2107891;28;20851;-71
2023/06/09 03:55:38;;;;;;;9.05;3.15;;;;;;;18.78;77.76;100969.19;2091407;28;20039;-71
2023/06/09 03:56:40;;;;;;;6.40;3.40;;;;;;;18.85;77.36;100965.97;2100153;28;20035;-71
2023/06/09 03:57:42;;;;;;;8.73;3.00;;;;;;;18.91;77.10;100967.38;2108131;28;20063;-71
2023/06/09 03:58:48;;;;;;;10.77;2.83;;;;;;;18.99;76.68;100963.84;2091351;28;20041;-71
2023/06/09 03:59:50;;;;;;;10.05;3.17;;;;;;;19.09;76.37;100968.16;2108434;27;20027;-71
2023/06/09 04:00:53;;;;;;;5.18;2.65;;;;;;;19.17;76.18;100965.41;2116165;28;20876;-71
2023/06/09 04:01:57;;;;;;;6.03;2.90;;;;;;;19.28;75.59;100965.03;2100120;28;20952;-71
2023/06/09 04:03:00;;;;;;;7.13;3.28;;;;;;;19.34;75.22;100969.97;2091346;28;20034;-74
2023/06/09 04:04:02;;;;;;;5.72;3.30;;;;;;;19.45;74.84;100970.38;2083657;28;20096;-74
2023/06/09 04:05:05;;;;;;;12.23;3.20;;;;;;;19.48;74.69;100968.94;2099967;28;20061;-74
2023/06/09 04:06:06;;;;;;;7.95;3.25;;;;;;;19.46;74.82;100972.00;2099707;28;20147;-74
2023/06/09 04:07:08;;;;;;;13.90;3.38;;;;;;;19.56;74.96;100971.63;2091496;28;20020;-74
2023/06/09 04:08:12;;;;;;;7.28;3.05;;;;;;;19.53;74.33;100969.56;2099640;28;20049;-74
2023/06/09 04:09:13;;;;;;;8.70;3.22;;;;;;;19.68;74.25;100968.22;2090951;28;20149;-74
2023/06/09 04:10:16;;;;;;;12.05;3.60;;;;;;;19.72;73.84;100971.88;2091939;28;20032;-74
2023/06/09 04:11:17;;;;;;;6.38;3.28;;;;;;;19.73;73.55;100970.75;2124888;27;20023;-74
2023/06/09 04:12:20;;;;;;;7.63;3.05;;;;;;;19.82;73.25;100967.97;2107867;28;20851;-74
2023/06/09 04:13:21;;;;;;;7.93;3.33;;;;;;;19.94;72.71;100970.00;2083279;28;20112;-74
2023/06/09 04:14:23;;;;;;;9.05;3.10;;;;;;;20.18;71.97;100980.28;2099766;28;20037;-74
2023/06/09 04:15:26;;;;;;;7.65;3.20;;;;;;;20.52;71.19;100969.09;2107662;28;20029;-74
2023/06/09 04:16:29;;;;;;;7.13;3.55;;;;;;;20.86;69.95;100975.31;2100012;28;20951;-74
2023/06/09 04:17:37;;;;;;;7.68;3.40;;;;;;;21.09;68.62;100974.91;2107914;28;20068;-74
2023/06/09 04:18:41;;;;;;;9.32;2.90;;;;;;;21.24;68.18;100979.72;2099694;28;20152;-73
2023/06/09 04:19:42;;;;;;;9.45;2.97;;;;;;;21.38;67.10;100972.00;2091225;28;20033;-74
2023/06/09 04:20:44;;;;;;;7.13;3.22;;;;;;;21.30;66.96;100978.34;2099701;28;20793;-74
2023/06/09 04:21:46;;;;;;;12.98;3.60;;;;;;;21.40;66.69;100972.44;2099281;28;20033;-74
2023/06/09 04:23:08;;;;;;;10.13;3.35;;;;;;;21.54;65.87;100979.53;2099952;28;20037;-74
2023/06/09 04:24:13;;;;;;;6.78;2.97;;;;;;;21.66;65.16;100977.59;2101479;28;20045;-74
2023/06/09 04:25:19;;;;;;;8.00;2.78;;;;;;;21.83;64.50;100975.75;2091604;28;20033;-74
2023/06/09 04:26:22;;;;;;;10.30;2.88;;;;;;;21.69;64.53;100976.91;2083223;28;20141;-74
2023/06/09 04:27:26;;;;;;;7.47;3.20;;;;;;;21.77;63.78;100974.38;2090583;28;20837;-74
2023/06/09 04:28:29;;;;;;;6.95;3.10;;;;;;;22.00;63.83;100978.22;2083119;28;20050;-74
2023/06/09 04:29:37;;;;;;;10.00;3.00;;;;;;;22.17;62.68;100975.25;2074620;28;20921;-74
2023/06/09 04:30:41;;;;;;;6.68;3.30;;;;;;;22.07;62.56;100969.41;2085544;28;20114;-74
2023/06/09 04:31:46;;;;;;;7.20;3.00;;;;;;;22.40;62.25;100966.50;2090955;28;20037;-74
2023/06/09 04:32:50;;;;;;;10.10;3.15;;;;;;;22.50;61.45;100967.94;2091546;28;20029;-74
2023/06/09 04:33:52;;;;;;;8.63;2.90;;;;;;;22.74;60.68;100967.03;2082659;28;20037;-72
2023/06/09 04:34:57;;;;;;;7.03;2.80;;;;;;;22.80;60.61;100969.16;2083197;28;20029;-71
2023/06/09 04:36:00;;;;;;;7.05;2.92;;;;;;;23.27;60.43;100975.88;2091145;28;20838;-71
2023/06/09 04:37:04;;;;;;;4.68;2.88;;;;;;;23.60;58.83;100973.50;2083098;28;20124;-71
2023/06/09 04:38:07;;;;;;;11.18;3.30;;;;;;;23.72;57.90;100969.88;2100066;28;20021;-71
2023/06/09 04:39:11;;;;;;;8.93;3.13;;;;;;;23.90;57.41;100969.50;2116178;28;20032;-72
2023/06/09 04:40:14;;;;;;;9.80;2.92;;;;;;;23.85;56.61;100972.53;2106905;28;20105;-71
2023/06/09 04:41:17;;;;;;;7.10;2.95;;;;;;;23.90;56.93;100972.25;2107604;28;20125;-71
2023/06/09 04:42:20;;;;;;;7.80;3.08;;;;;;;24.33;56.62;100967.63;2107368;28;20029;-72
2023/06/09 04:43:27;;;;;;;5.95;3.08;;;;;;;24.71;55.77;100969.56;2107591;28;20020;-72
2023/06/09 04:44:28;;;;;;;9.43;3.15;;;;;;;24.72;54.93;100971.97;2107424;28;20029;-71
2023/06/09 04:45:34;;;;;;;8.65;3.13;;;;;;;24.42;54.13;100968.25;2099010;28;20794;-71
2023/06/09 04:46:42;;;;;;;9.65;2.83;;;;;;;23.97;54.83;100969.66;2100417;28;20037;-71
2023/06/09 04:47:48;;;;;;;5.80;2.92;;;;;;;24.11;55.64;100969.94;2107680;28;20067;-71
2023/06/09 04:48:51;;;;;;;7.30;3.15;;;;;;;24.45;55.26;100973.00;2107721;28;20135;-71
2023/06/09 04:49:53;;;;;;;7.68;3.08;;;;;;;24.58;54.27;100970.91;2116263;28;20028;-71
2023/06/09 04:51:00;;;;;;;7.70;3.22;;;;;;;24.24;53.91;100976.91;2098635;28;20025;-72
2023/06/09 04:52:03;;;;;;;9.50;2.95;;;;;;;23.45;55.71;100976.28;2092953;28;20042;-71
2023/06/09 04:53:09;;;;;;;7.10;3.03;;;;;;;23.49;56.76;100977.97;2107174;28;20028;-71
2023/06/09 04:54:20;;;;;;;12.38;3.60;;;;;;;24.00;56.22;100971.69;2107739;28;20146;-71
2023/06/09 04:55:26;;;;;;;9.18;4.28;;;;;;;24.22;55.50;100973.72;2098869;28;20037;-72
2023/06/09 04:56:29;;;;;;;8.40;3.05;;;;;;;24.42;55.05;100979.22;2099412;28;20041;-71
2023/06/09 04:57:32;;;;;;;6.20;2.95;;;;;;;24.58;54.10;100977.19;2099007;28;20772;-71
2023/06/09 04:58:35;;;;;;;5.13;3.03;;;;;;;24.59;54.19;100969.75;2099653;28;20037;-71
2023/06/09 04:59:39;;;;;;;6.85;2.80;;;;;;;24.71;54.10;100977.81;2089194;28;20100;-71
2023/06/09 05:00:45;;;;;;;8.07;3.30;;;;;;;24.96;53.74;100976.31;2101703;27;20124;-71